createdAt,value
2022-11-20T00:01:15.634Z,24.90
2022-11-20T00:03:42.767Z,23.80
2022-11-20T00:06:13.693Z,22.95
2022-11-20T00:08:40.491Z,21.65
2022-11-20T00:13:42.398Z,21.17
2022-11-20T00:16:11.203Z,21.70
2022-11-20T00:18:38.107Z,24.85
2022-11-20T00:21:12.441Z,24.42
2022-11-20T00:23:39.094Z,23.52
2022-11-20T00:26:11.753Z,23.50
2022-11-20T00:28:38.553Z,21.13
2022-11-20T00:33:33.110Z,20.35
2022-11-20T00:36:04.808Z,17.80
2022-11-20T00:38:32.588Z,19.52
2022-11-20T00:41:01.617Z,20.38
2022-11-20T00:43:28.664Z,18.65
2022-11-20T00:46:07.850Z,23.27
2022-11-20T00:48:34.636Z,16.88
2022-11-20T00:53:28.501Z,15.20
2022-11-20T00:56:07.001Z,18.80
2022-11-20T00:58:37.179Z,17.30
2022-11-20T01:01:10.761Z,18.00
2022-11-20T01:03:43.719Z,15.52
2022-11-20T01:06:12.095Z,18.45
2022-11-20T01:08:39.519Z,18.83
2022-11-20T01:11:08.934Z,14.68
2022-11-20T01:13:38.274Z,19.75
2022-11-20T01:16:13.636Z,17.17
2022-11-20T01:18:43.098Z,16.45
2022-11-20T01:21:13.028Z,14.50
2022-11-20T01:23:42.018Z,16.27
2022-11-20T01:26:11.078Z,13.13
2022-11-20T01:28:39.705Z,19.38
2022-11-20T01:31:19.427Z,19.70
2022-11-20T01:33:47.845Z,17.33
2022-11-20T01:36:16.024Z,19.10
2022-11-20T01:38:43.095Z,18.52
2022-11-20T01:41:11.759Z,17.65
2022-11-20T01:43:38.371Z,16.48
2022-11-20T01:46:20.636Z,20.63
2022-11-20T01:49:00.946Z,20.35
2022-11-20T01:51:41.685Z,16.25
2022-11-20T01:54:13.440Z,16.35
2022-11-20T01:56:43.759Z,17.33
2022-11-20T01:59:13.225Z,15.13
2022-11-20T02:01:40.225Z,15.57
2022-11-20T02:04:09.068Z,15.10
2022-11-20T02:07:06.395Z,16.25
2022-11-20T02:09:33.030Z,18.65
2022-11-20T02:12:00.237Z,24.80
2022-11-20T02:14:28.219Z,19.98
2022-11-20T02:16:55.873Z,19.30
2022-11-20T02:19:22.718Z,15.57
2022-11-20T02:21:55.676Z,18.58
2022-11-20T02:24:24.199Z,17.50
2022-11-20T02:26:54.724Z,19.42
2022-11-20T02:29:39.243Z,16.90
2022-11-20T02:32:06.389Z,14.88
2022-11-20T02:34:33.066Z,16.15
2022-11-20T02:37:00.489Z,18.27
2022-11-20T02:39:29.201Z,16.52
2022-11-20T02:41:57.079Z,20.50
2022-11-20T02:44:23.874Z,16.08
2022-11-20T02:49:17.901Z,17.10
2022-11-20T02:51:44.885Z,16.15
2022-11-20T02:54:11.522Z,18.75
2022-11-20T02:56:40.139Z,21.48
2022-11-20T02:59:07.086Z,20.45
2022-11-20T03:01:33.752Z,17.77
2022-11-20T03:04:00.434Z,17.45
2022-11-20T03:06:27.103Z,19.02
2022-11-20T03:08:53.740Z,19.52
2022-11-20T03:11:21.340Z,21.40
2022-11-20T03:13:47.909Z,18.42
2022-11-20T03:16:20.138Z,22.17
2022-11-20T03:18:47.149Z,18.48
2022-11-20T03:21:15.169Z,17.65
2022-11-20T03:23:42.498Z,20.67
2022-11-20T03:26:23.450Z,16.90
2022-11-20T03:28:53.554Z,13.73
2022-11-20T03:31:24.001Z,16.85
2022-11-20T03:33:50.840Z,15.63
2022-11-20T03:38:45.315Z,12.50
2022-11-20T03:41:20.357Z,16.98
2022-11-20T03:43:55.877Z,14.68
2022-11-20T03:46:23.423Z,13.73
2022-11-20T03:48:52.004Z,17.25
2022-11-20T03:51:25.876Z,17.98
2022-11-20T03:53:54.531Z,13.00
2022-11-20T03:56:24.629Z,12.60
2022-11-20T03:58:51.373Z,10.88
2022-11-20T04:01:21.351Z,13.73
2022-11-20T04:03:48.453Z,13.13
2022-11-20T04:06:20.908Z,11.98
2022-11-20T04:08:52.413Z,14.88
2022-11-20T04:11:26.146Z,13.07
2022-11-20T04:13:55.914Z,11.95
2022-11-20T04:16:24.525Z,15.98
2022-11-20T04:18:55.845Z,15.13
2022-11-20T04:21:22.808Z,14.05
2022-11-20T04:23:50.402Z,17.73
2022-11-20T04:26:17.320Z,14.20
2022-11-20T04:28:43.969Z,18.60
2022-11-20T04:31:13.363Z,17.55
2022-11-20T04:33:40.927Z,18.23
2022-11-20T04:36:14.765Z,14.25
2022-11-20T04:38:41.815Z,17.05
2022-11-20T04:41:13.312Z,17.73
2022-11-20T04:43:39.909Z,12.73
2022-11-20T04:46:06.535Z,14.20
2022-11-20T04:48:33.099Z,15.70
2022-11-20T04:51:04.849Z,16.67
2022-11-20T04:53:31.606Z,15.95
2022-11-20T04:58:32.464Z,11.60
2022-11-20T05:01:06.917Z,13.25
2022-11-20T05:03:35.549Z,13.40
2022-11-20T05:06:06.500Z,13.57
2022-11-20T05:08:34.098Z,18.60
2022-11-20T05:11:06.039Z,14.48
2022-11-20T05:13:32.901Z,19.58
2022-11-20T05:16:08.190Z,18.05
2022-11-20T05:18:36.754Z,14.90
2022-11-20T05:21:03.602Z,17.83
2022-11-20T05:25:59.491Z,18.40
2022-11-20T05:28:27.590Z,17.08
2022-11-20T05:30:54.189Z,13.57
2022-11-20T05:33:21.117Z,13.52
2022-11-20T05:35:48.978Z,15.55
2022-11-20T05:38:15.810Z,16.58
2022-11-20T05:40:42.691Z,14.55
2022-11-20T05:43:09.319Z,13.40
2022-11-20T05:45:36.080Z,12.43
2022-11-20T05:50:29.466Z,14.20
2022-11-20T05:55:25.063Z,9.02
2022-11-20T05:57:54.460Z,11.80
2022-11-20T06:00:21.161Z,18.55
2022-11-20T06:02:47.838Z,12.30
2022-11-20T06:05:14.557Z,14.30
2022-11-20T06:07:41.252Z,16.63
2022-11-20T06:12:34.669Z,14.13
2022-11-20T06:15:01.787Z,14.63
2022-11-20T06:17:28.430Z,19.58
2022-11-20T06:19:54.985Z,19.90
2022-11-20T06:22:21.631Z,17.42
2022-11-20T06:24:48.634Z,19.13
2022-11-20T06:27:15.290Z,18.73
2022-11-20T06:29:41.914Z,18.55
2022-11-20T06:32:08.706Z,18.77
2022-11-20T06:37:01.852Z,15.75
2022-11-20T06:39:28.470Z,19.00
2022-11-20T06:41:58.749Z,23.33
2022-11-20T06:44:26.489Z,19.23
2022-11-20T06:46:53.082Z,16.45
2022-11-20T06:49:19.976Z,18.85
2022-11-20T06:51:46.864Z,20.27
2022-11-20T06:54:13.491Z,18.50
2022-11-20T06:56:40.087Z,21.95
2022-11-20T06:59:08.205Z,24.08
2022-11-20T07:01:35.842Z,17.13
2022-11-20T07:04:34.337Z,17.92
2022-11-20T07:09:31.290Z,16.08
2022-11-20T07:11:57.853Z,18.63
2022-11-20T07:14:24.468Z,19.33
2022-11-20T07:16:51.061Z,21.90
2022-11-20T07:19:17.690Z,18.23
2022-11-20T07:21:44.291Z,17.60
2022-11-20T07:24:10.853Z,19.63
2022-11-20T07:26:37.444Z,20.92
2022-11-20T07:29:04.409Z,24.17
2022-11-20T07:31:30.970Z,21.73
2022-11-20T07:33:57.612Z,24.38
2022-11-20T07:36:24.197Z,20.65
2022-11-20T07:38:50.853Z,26.08
2022-11-20T07:41:17.430Z,23.67
2022-11-20T07:43:44.174Z,20.58
2022-11-20T07:48:37.366Z,22.05
2022-11-20T07:51:04.033Z,22.58
2022-11-20T07:53:30.780Z,21.67
2022-11-20T07:58:26.802Z,21.40
2022-11-20T08:00:53.491Z,22.67
2022-11-20T08:05:51.817Z,28.40
2022-11-20T08:10:44.922Z,23.55
2022-11-20T08:13:30.209Z,19.92
2022-11-20T08:15:56.793Z,25.05
2022-11-20T08:18:31.187Z,26.65
2022-11-20T08:20:58.729Z,20.52
2022-11-20T08:25:52.341Z,19.92
2022-11-20T08:28:21.740Z,24.75
2022-11-20T08:30:50.739Z,24.58
2022-11-20T08:33:18.311Z,24.52
2022-11-20T08:35:45.174Z,24.55
2022-11-20T08:40:38.350Z,23.13
2022-11-20T08:43:05.296Z,26.42
2022-11-20T08:45:34.524Z,27.27
2022-11-20T08:48:03.459Z,26.77
2022-11-20T08:50:32.858Z,22.83
2022-11-20T08:53:05.864Z,30.50
2022-11-20T08:55:33.018Z,32.70
2022-11-20T08:58:03.698Z,26.17
2022-11-20T09:00:30.274Z,30.88
2022-11-20T09:02:56.865Z,27.08
2022-11-20T09:05:23.440Z,20.85
2022-11-20T09:07:49.993Z,19.55
2022-11-20T09:10:24.098Z,22.88
2022-11-20T09:12:52.590Z,21.05
2022-11-20T09:15:20.041Z,29.15
2022-11-20T09:17:53.337Z,25.08
2022-11-20T09:20:20.300Z,22.33
2022-11-20T09:22:47.160Z,28.45
2022-11-20T09:25:13.764Z,31.70
2022-11-20T09:27:42.314Z,24.63
2022-11-20T09:30:09.343Z,22.70
2022-11-20T09:32:36.643Z,29.73
2022-11-20T09:35:03.403Z,31.38
2022-11-20T09:39:56.590Z,38.42
2022-11-20T09:42:45.650Z,26.67
2022-11-20T09:45:17.465Z,31.17
2022-11-20T09:47:49.693Z,31.27
2022-11-20T09:50:37.431Z,29.63
2022-11-20T09:53:24.998Z,29.38
2022-11-20T09:55:53.049Z,27.10
2022-11-20T09:58:46.514Z,26.15
2022-11-20T10:01:17.561Z,25.95
2022-11-20T10:04:02.271Z,32.47
2022-11-20T10:06:34.608Z,27.55
2022-11-20T10:09:14.503Z,29.30
2022-11-20T10:12:22.729Z,32.60
2022-11-20T10:15:23.422Z,28.30
2022-11-20T10:17:56.222Z,26.00
2022-11-20T10:20:33.700Z,29.17
2022-11-20T10:23:03.056Z,28.58
2022-11-20T10:25:46.818Z,27.35
2022-11-20T10:28:25.732Z,29.92
2022-11-20T10:31:01.899Z,29.48
2022-11-20T10:33:50.063Z,27.98
2022-11-20T10:36:24.885Z,25.98
2022-11-20T10:39:01.770Z,33.65
2022-11-20T10:41:37.243Z,26.42
2022-11-20T10:44:40.821Z,29.63
2022-11-20T10:47:17.143Z,28.48
2022-11-20T10:49:52.167Z,27.40
2022-11-20T10:52:39.838Z,31.02
2022-11-20T10:55:27.777Z,30.27
2022-11-20T10:58:22.181Z,35.28
2022-11-20T11:00:48.965Z,27.55
2022-11-20T11:03:28.333Z,38.85
2022-11-20T11:08:33.624Z,30.95
2022-11-20T11:11:03.576Z,30.27
2022-11-20T11:13:31.626Z,28.30
2022-11-20T11:15:58.673Z,30.38
2022-11-20T11:18:41.843Z,34.85
2022-11-20T11:21:10.685Z,32.13
2022-11-20T11:23:43.183Z,36.47
2022-11-20T11:26:24.668Z,31.58
2022-11-20T11:29:00.168Z,27.65
2022-11-20T11:31:32.673Z,36.83
2022-11-20T11:34:13.772Z,25.92
2022-11-20T11:36:41.028Z,30.52
2022-11-20T11:39:14.466Z,26.70
2022-11-20T11:41:41.949Z,31.15
2022-11-20T11:44:49.040Z,26.52
2022-11-20T11:47:23.894Z,26.92
2022-11-20T11:50:01.080Z,31.90
2022-11-20T11:52:28.847Z,28.80
2022-11-20T11:55:00.709Z,29.10
2022-11-20T11:57:52.752Z,33.95
2022-11-20T12:00:21.945Z,29.20
2022-11-20T12:02:51.454Z,26.63
2022-11-20T12:05:30.275Z,32.10
2022-11-20T12:08:02.648Z,33.33
2022-11-20T12:10:42.053Z,32.85
2022-11-20T12:13:32.716Z,25.75
2022-11-20T12:15:59.447Z,33.03
2022-11-20T12:18:26.433Z,30.45
2022-11-20T12:21:24.413Z,30.48
2022-11-20T12:24:28.696Z,26.02
2022-11-20T12:27:33.113Z,29.58
2022-11-20T12:30:19.470Z,29.45
2022-11-20T12:33:11.024Z,28.40
2022-11-20T12:36:14.512Z,28.83
2022-11-20T12:38:53.239Z,31.27
2022-11-20T12:41:53.347Z,30.67
2022-11-20T12:45:02.825Z,29.92
2022-11-20T12:48:13.142Z,29.30
2022-11-20T12:51:13.530Z,30.98
2022-11-20T12:53:38.745Z,30.83
2022-11-20T12:56:39.548Z,30.33
2022-11-20T12:59:46.784Z,29.88
2022-11-20T13:02:34.742Z,28.77
2022-11-20T13:05:12.254Z,27.83
2022-11-20T13:07:40.836Z,29.02
2022-11-20T13:10:41.550Z,29.10
2022-11-20T13:13:33.921Z,32.03
2022-11-20T13:16:14.739Z,27.40
2022-11-20T13:18:43.507Z,31.15
2022-11-20T13:21:22.028Z,28.23
2022-11-20T13:23:48.768Z,32.78
2022-11-20T13:26:20.004Z,27.00
2022-11-20T13:28:48.779Z,30.88
2022-11-20T13:31:32.368Z,25.52
2022-11-20T13:34:00.427Z,28.77
2022-11-20T13:36:30.096Z,29.08
2022-11-20T13:38:57.503Z,27.88
2022-11-20T13:41:38.623Z,30.85
2022-11-20T13:44:24.245Z,29.52
2022-11-20T13:46:51.308Z,34.20
2022-11-20T13:49:43.817Z,33.80
2022-11-20T13:52:43.365Z,27.10
2022-11-20T13:55:37.574Z,25.05
2022-11-20T13:58:48.806Z,31.52
2022-11-20T14:01:20.523Z,28.55
2022-11-20T14:04:05.751Z,36.25
2022-11-20T14:06:40.096Z,33.80
2022-11-20T14:09:11.556Z,30.67
2022-11-20T14:11:47.821Z,32.45
2022-11-20T14:14:18.115Z,29.85
2022-11-20T14:16:48.225Z,32.63
2022-11-20T14:19:20.660Z,34.35
2022-11-20T14:21:53.180Z,36.78
2022-11-20T14:24:22.178Z,34.75
2022-11-20T14:26:50.475Z,30.40
2022-11-20T14:29:19.383Z,30.45
2022-11-20T14:31:52.700Z,31.85
2022-11-20T14:34:24.390Z,38.20
2022-11-20T14:37:00.484Z,41.58
2022-11-20T14:39:34.806Z,43.53
2022-11-20T14:42:01.661Z,38.65
2022-11-20T14:44:34.211Z,42.08
2022-11-20T14:47:03.470Z,37.42
2022-11-20T14:49:32.490Z,34.75
2022-11-20T14:52:14.372Z,33.15
2022-11-20T14:54:49.083Z,32.22
2022-11-20T14:57:23.675Z,38.75
2022-11-20T14:59:50.301Z,41.10
2022-11-20T15:02:17.473Z,36.70
2022-11-20T15:04:51.689Z,37.10
2022-11-20T15:07:29.832Z,35.78
2022-11-20T15:10:12.804Z,35.58
2022-11-20T15:12:54.378Z,31.85
2022-11-20T15:15:31.319Z,31.45
2022-11-20T15:17:58.850Z,31.17
2022-11-20T15:20:29.376Z,28.65
2022-11-20T15:22:56.017Z,24.50
2022-11-20T15:27:56.756Z,26.45
2022-11-20T15:30:24.128Z,30.63
2022-11-20T15:32:50.823Z,27.17
2022-11-20T15:35:17.490Z,26.00
2022-11-20T15:37:44.142Z,28.73
2022-11-20T15:40:11.349Z,26.17
2022-11-20T15:42:38.027Z,25.13
2022-11-20T15:45:05.150Z,27.10
2022-11-20T15:47:35.229Z,27.23
2022-11-20T15:50:02.023Z,30.38
2022-11-20T15:52:33.100Z,32.33
2022-11-20T15:55:11.508Z,25.17
2022-11-20T15:57:38.104Z,24.90
2022-11-20T16:02:31.609Z,26.73
2022-11-20T16:04:58.353Z,25.90
2022-11-20T16:07:25.064Z,33.95
2022-11-20T16:09:51.656Z,24.60
2022-11-20T16:15:23.942Z,26.52
2022-11-20T16:17:50.542Z,26.08
2022-11-20T16:22:43.646Z,22.48
2022-11-20T16:27:36.705Z,23.05
2022-11-20T16:30:03.508Z,27.25
2022-11-20T16:32:30.120Z,29.05
2022-11-20T16:37:23.401Z,23.90
2022-11-20T16:39:49.977Z,31.88
2022-11-20T16:44:46.547Z,24.20
2022-11-20T16:47:13.129Z,23.70
2022-11-20T16:52:06.352Z,29.20
2022-11-20T16:56:59.588Z,24.55
2022-11-20T17:01:52.875Z,27.30
2022-11-20T17:04:22.158Z,28.75
2022-11-20T17:06:48.857Z,30.73
2022-11-20T17:11:42.412Z,23.17
2022-11-20T17:14:11.179Z,29.55
2022-11-20T17:16:37.971Z,32.35
2022-11-20T17:19:05.455Z,27.98
2022-11-20T17:21:35.813Z,32.08
2022-11-20T17:24:04.536Z,30.30
2022-11-20T17:26:31.424Z,31.73
2022-11-20T17:28:59.029Z,33.85
2022-11-20T17:31:26.849Z,34.67
2022-11-20T17:33:53.772Z,31.42
2022-11-20T17:36:20.880Z,25.27
2022-11-20T17:38:48.117Z,31.73
2022-11-20T17:41:17.318Z,32.80
2022-11-20T17:43:44.653Z,39.42
2022-11-20T17:46:14.540Z,34.20
2022-11-20T17:48:44.013Z,34.10
2022-11-20T17:51:13.322Z,35.15
2022-11-20T17:53:41.906Z,37.65
2022-11-20T17:56:26.941Z,38.95
2022-11-20T17:58:53.819Z,39.95
2022-11-20T18:01:20.982Z,38.15
2022-11-20T18:03:47.985Z,37.40
2022-11-20T18:06:23.706Z,34.33
2022-11-20T18:08:50.827Z,40.80
2022-11-20T18:11:31.935Z,31.25
2022-11-20T18:14:19.807Z,29.83
2022-11-20T18:16:49.145Z,34.95
2022-11-20T18:19:19.881Z,38.50
2022-11-20T18:21:46.778Z,108.60
2022-11-20T18:24:13.845Z,46.53
2022-11-20T18:26:44.259Z,32.35
2022-11-20T18:29:12.136Z,39.63
2022-11-20T18:31:39.554Z,34.20
2022-11-20T18:34:07.666Z,35.03
2022-11-20T18:36:34.762Z,38.03
2022-11-20T18:39:05.148Z,39.08
2022-11-20T18:41:50.523Z,34.10
2022-11-20T18:44:40.944Z,36.50
2022-11-20T18:47:14.208Z,34.10
2022-11-20T18:49:43.191Z,36.10
2022-11-20T18:52:09.900Z,31.90
2022-11-20T18:54:37.254Z,35.97
2022-11-20T18:57:05.055Z,41.38
2022-11-20T18:59:32.262Z,28.20
2022-11-20T19:01:59.358Z,41.15
2022-11-20T19:04:26.706Z,34.83
2022-11-20T19:06:56.231Z,32.85
2022-11-20T19:09:24.314Z,37.70
2022-11-20T19:11:51.623Z,35.05
2022-11-20T19:14:18.428Z,34.58
2022-11-20T19:16:45.165Z,35.08
2022-11-20T19:19:12.194Z,33.75
2022-11-20T19:21:38.942Z,29.50
2022-11-20T19:24:05.832Z,30.90
2022-11-20T19:26:35.391Z,29.70
2022-11-20T19:29:02.325Z,35.53
2022-11-20T19:31:29.027Z,32.55
2022-11-20T19:34:03.805Z,36.10
2022-11-20T19:36:39.069Z,30.67
2022-11-20T19:39:09.661Z,29.08
2022-11-20T19:41:38.516Z,35.35
2022-11-20T19:44:07.951Z,33.90
2022-11-20T19:46:36.496Z,32.25
2022-11-20T19:49:04.307Z,27.63
2022-11-20T19:51:34.214Z,30.08
2022-11-20T19:54:02.208Z,31.52
2022-11-20T19:56:30.840Z,30.80
2022-11-20T19:58:57.910Z,30.70
2022-11-20T20:01:27.168Z,28.50
2022-11-20T20:03:55.092Z,29.85
2022-11-20T20:06:24.115Z,29.33
2022-11-20T20:08:56.072Z,29.83
2022-11-20T20:11:25.041Z,29.77
2022-11-20T20:13:51.802Z,32.08
2022-11-20T20:16:21.920Z,34.00
2022-11-20T20:18:48.832Z,32.83
2022-11-20T20:21:18.483Z,30.75
2022-11-20T20:23:50.008Z,28.85
2022-11-20T20:26:16.601Z,30.27
2022-11-20T20:28:43.200Z,27.75
2022-11-20T20:31:12.424Z,29.13
2022-11-20T20:33:40.212Z,25.60
2022-11-20T20:36:08.683Z,22.52
2022-11-20T20:38:35.660Z,25.65
2022-11-20T20:41:02.335Z,25.00
2022-11-20T20:43:29.480Z,24.70
2022-11-20T20:45:56.291Z,20.45
2022-11-20T20:48:24.947Z,22.60
2022-11-20T20:51:01.053Z,22.60
2022-11-20T20:53:29.949Z,26.00
2022-11-20T20:55:57.334Z,22.17
2022-11-20T20:58:24.848Z,26.27
2022-11-20T21:00:51.770Z,22.63
2022-11-20T21:03:18.931Z,24.58
2022-11-20T21:05:46.171Z,22.98
2022-11-20T21:08:22.050Z,22.10
2022-11-20T21:10:49.981Z,28.73
2022-11-20T21:13:17.758Z,25.70
2022-11-20T21:15:47.958Z,24.65
2022-11-20T21:18:16.708Z,26.20
2022-11-20T21:21:03.162Z,22.88
2022-11-20T21:23:29.914Z,20.10
2022-11-20T21:25:56.736Z,23.77
2022-11-20T21:28:23.436Z,18.98
2022-11-20T21:30:50.077Z,25.48
2022-11-20T21:33:16.777Z,28.83
2022-11-20T21:35:43.420Z,27.65
2022-11-20T21:38:10.030Z,30.55
2022-11-20T21:43:03.223Z,31.58
2022-11-20T21:45:29.885Z,26.90
2022-11-20T21:47:56.453Z,28.00
2022-11-20T21:52:49.624Z,30.38
2022-11-20T21:55:16.246Z,22.42
2022-11-20T21:57:42.837Z,24.52
2022-11-20T22:00:10.477Z,27.15
2022-11-20T22:02:40.179Z,26.98
2022-11-20T22:05:07.880Z,29.17
2022-11-20T22:07:35.127Z,24.38
2022-11-20T22:10:01.907Z,27.85
2022-11-20T22:12:28.561Z,25.50
2022-11-20T22:14:55.155Z,21.85
2022-11-20T22:17:41.767Z,24.30
2022-11-20T22:20:09.379Z,26.95
2022-11-20T22:22:35.956Z,28.13
2022-11-20T22:27:29.133Z,23.42
2022-11-20T22:29:55.848Z,22.92
2022-11-20T22:32:22.483Z,23.55
2022-11-20T22:34:49.165Z,22.25
2022-11-20T22:37:15.967Z,27.70
2022-11-20T22:39:42.582Z,28.35
2022-11-20T22:42:09.231Z,26.20
2022-11-20T22:44:35.860Z,23.85
2022-11-20T22:47:03.665Z,25.55
2022-11-20T22:49:33.069Z,22.85
2022-11-20T22:51:59.684Z,29.30
2022-11-20T22:54:26.576Z,31.02
2022-11-20T22:56:53.326Z,25.45
2022-11-20T22:59:19.919Z,31.45
2022-11-20T23:01:46.610Z,30.05
2022-11-20T23:04:13.221Z,28.58
2022-11-20T23:06:39.877Z,32.20
2022-11-20T23:09:07.934Z,27.05
2022-11-20T23:11:35.550Z,29.05
2022-11-20T23:14:05.345Z,24.95
2022-11-20T23:16:33.549Z,22.95
2022-11-20T23:19:08.046Z,21.80
2022-11-20T23:21:36.073Z,22.83
2022-11-20T23:24:03.429Z,20.80
2022-11-20T23:26:32.597Z,19.92
2022-11-20T23:29:00.152Z,18.95
2022-11-20T23:31:29.225Z,18.15
2022-11-20T23:33:56.510Z,19.27
2022-11-20T23:36:23.162Z,20.70
2022-11-20T23:38:49.812Z,18.65
2022-11-20T23:41:17.099Z,20.08
2022-11-20T23:43:43.732Z,21.23
2022-11-20T23:46:15.103Z,17.70
2022-11-20T23:48:43.117Z,18.05
2022-11-20T23:51:09.925Z,18.08
2022-11-20T23:53:36.602Z,17.77
2022-11-20T23:56:05.246Z,18.73
2022-11-20T23:58:41.379Z,19.90
